TNM weather

Teniente Rodolfo Marsh Martin Base
Isla Rey Jorge, Antarctica

Public forecast

Using degrees Celsius for public forecast. Weather courtesy of forecast.io.

METAR (pilot weather report)

Retrieved 2019/02/16 19:00 UTC (35 minutes ago):

SCRM 161900Z 10023KT 9999 SCT023 OVC079 01/M03 Q0979 NOSIG

TAF (pilot weather forecast)

Forecast is more than 12 hours old.

Retrieved 2017/03/26 11:49 UTC (2 years ago):

TAF COR SCCI 2611BANX 261149 SCEFYMYX SAAA03 SCEF 261200 METAR SCRM 261200Z 26010KT 8000 OVC005 02/02 Q1006